Knoxville, Illinois
Current Conditions -  °F | °C
As of 5:35 AM on Friday 31 Oct 2014 (Local Time) from KGBG Reporting Station
Overcast Overcast  
Wind Chill: 29°   Ceiling: 4800
Heat Index: 40°   Visibility: 10mi
Dew Point: 26°   Wind: 23mph
Humidity: 59%   Direction: 310°NW
Pressure: 30.19"   Gusts: 35mph
Location:  40.91°N, 90.28°W
Report Text: KGBG 311035Z AUTO 31020G30KT 10SM SCT042 OVC048 04/M03 A3019 RMK AO2 T00421031
Loading
Personal Weather Stations






























Interactive Weather Map
Tropical Storm Tracking
New forecast layout! Learn more

10-Day Weather Forecast

Advertisements
Track Severe Weather on mobile